Portada
METAR-TAF:

METAR-TAF

Aeroports :

Abadan, Iran

latitud: 30-22N, longitud: 048-15E, altitud: 3 m

Observació

L'informe es va fer fa 47 minuts, a les 15:00 UTC
Vent 6 kt del Nord-Oest
Temperatura 18°C
Humitat 34%
Pressió 1016 hPa
Visibilitat 10 km o més
sense núvols per sota de 1500 mi sense presència de cumulonimbus.

METAR: OIAA 191500Z 32006KT CAVOK 18/02 Q1016

Hora: 19:17 (15:47 UTC)

Pronòstic

L'informe es va fer fa 4 hores i 47 minuts, a les 11:00 UTC
Pronòstic vàlid del 19 a les 12 UTC al 20 a les 18 UTC
Vent 8 kt del Nord/Nord-Oest
Visibilitat: 7000 m
Núvols disperses a una alçada de 3000 ft
Temporalment
l' 19 a les 12 UTC al 19 a les 18 UTC
Vent 12 kt del Nord/Nord-Oest
Temporalment
l' 19 a les 24 UTC al 20 a les 04 UTC
Visibilitat: 4000 m
boirina

TAF: OIAA 191100Z 1912/2018 34008KT 7000 SCT030 TEMPO 1912/1918 33012KT TEMPO 1924/2004 4000 BR

Observacions i pronòstics meteorològics de més de 4000 aeroports (METAR i TAF).

Les estacions disponibles són els punts grocs i vermells al mapa.

Posi el ratolí al punt desitjat per veure el nom de l'estació.

Feu clic per veure les observacions i els pronòstics meteorològics.

Per canviar el mapa: feu clic els botons verds amb una creu de color negre per apropar; al botó verd amb un guió per allunyar la imatge; o en les fletxes verdes per a mapes adjacents.


METAR-TAF: